Dame Des Tropiques — FQJE — position and weather

sailwx.info

Track history (hours):
 
Tides and Currents Weather Stations Pressure Air Temp Water Temp Dewpoint Dewpoint Depression Visibility Wind Speed Wind Dir Waves Ship Positions

Dame Des Tropiques

Last reported at 2016-Jul-22 13:25 UTC. Time now 2016-Jul-27 23:06 UTC.
Position N 48°53' W 001°49'.

Length 28 m.

Type: Sailing vessel. MMSI: 347002100.

Date/timePositionNaut miles runAvg speedWind from/ knotsBaromVisibWave heightAir tempDewpointWater temp
2016-Jul-22 13:25N 48°53' W 001°49'  
2016-Jul-20 06:24N 49°27' W 002°32'6 0.3
2016-Jul-19 12:14N 49°32' W 002°26'5 6.7
2016-Jul-19 11:26N 49°37' W 002°24'6 7.2
2016-Jul-19 10:33N 49°42' W 002°17'4 0.4
2016-Jul-18 23:18N 49°44' W 002°12'22 0.6
2016-Jul-17 10:04N 49°22' W 002°20'15 1.8
2016-Jul-17 01:30N 49°13' W 002°01'0 0.0
2016-Jul-17 00:33N 49°13' W 002°01'0 0.0
2016-Jul-16 23:30N 49°13' W 002°01'0 0.0
2016-Jul-16 22:21N 49°13' W 002°01'0 0.0
2016-Jul-16 21:09N 49°13' W 002°01'0 0.0
2016-Jul-16 20:27N 49°13' W 002°01'1 0.8
2016-Jul-16 19:25N 49°13' W 001°60'7 7.8
2016-Jul-16 18:34N 49°08' W 001°53'8 7.7
2016-Jul-16 17:32N 48°60' W 001°51'7 6.9
2016-Jul-16 16:31N 48°53' W 001°47'6 6.5
2016-Jul-16 15:33N 48°50' W 001°39'2 1.5
2016-Jul-16 14:21N 48°50' W 001°36'0 0.0
2016-Jul-16 13:24N 48°50' W 001°36'0 0.0
2016-Jul-16 12:27N 48°50' W 001°36'0 0.0
2016-Jul-16 11:15N 48°50' W 001°36'0 0.0
2016-Jul-16 08:33N 48°50' W 001°36'0 0.0
2016-Jul-16 07:21N 48°50' W 001°36'  
Track history (hours):
 
Tides and Currents Weather Stations Pressure Air Temp Water Temp Dewpoint Dewpoint Depression Visibility Wind Speed Wind Dir Waves Ship Positions

Dame Des Tropiques

Last reported at 2016-Jul-22 13:25 UTC. Time now 2016-Jul-27 23:06 UTC.
Position N 48°53' W 001°49'.

Length 28 m.

Type: Sailing vessel. MMSI: 347002100.

Date/timePositionNaut miles runAvg speedWind from/ knotsBaromVisibWave heightAir tempDewpointWater temp
2016-Jul-22 13:25N 48°53' W 001°49'  
2016-Jul-20 06:24N 49°27' W 002°32'6 0.3
2016-Jul-19 12:14N 49°32' W 002°26'5 6.7
2016-Jul-19 11:26N 49°37' W 002°24'6 7.2
2016-Jul-19 10:33N 49°42' W 002°17'4 0.4
2016-Jul-18 23:18N 49°44' W 002°12'22 0.6
2016-Jul-17 10:04N 49°22' W 002°20'15 1.8
2016-Jul-17 01:30N 49°13' W 002°01'0 0.0
2016-Jul-17 00:33N 49°13' W 002°01'0 0.0
2016-Jul-16 23:30N 49°13' W 002°01'0 0.0
2016-Jul-16 22:21N 49°13' W 002°01'0 0.0
2016-Jul-16 21:09N 49°13' W 002°01'0 0.0
2016-Jul-16 20:27N 49°13' W 002°01'1 0.8
2016-Jul-16 19:25N 49°13' W 001°60'7 7.8
2016-Jul-16 18:34N 49°08' W 001°53'8 7.7
2016-Jul-16 17:32N 48°60' W 001°51'7 6.9
2016-Jul-16 16:31N 48°53' W 001°47'6 6.5
2016-Jul-16 15:33N 48°50' W 001°39'2 1.5
2016-Jul-16 14:21N 48°50' W 001°36'0 0.0
2016-Jul-16 13:24N 48°50' W 001°36'0 0.0
2016-Jul-16 12:27N 48°50' W 001°36'0 0.0
2016-Jul-16 11:15N 48°50' W 001°36'0 0.0
2016-Jul-16 08:33N 48°50' W 001°36'0 0.0
2016-Jul-16 07:21N 48°50' W 001°36'  

Dump ship's entire track history